createdAt,value
2023-02-22T00:00:50.181Z,76.59
2023-02-22T00:01:51.714Z,75.44
2023-02-22T00:02:51.338Z,77.86
2023-02-22T00:03:51.637Z,80.18
2023-02-22T00:04:51.353Z,79.14
2023-02-22T00:05:51.419Z,78.81
2023-02-22T00:06:51.484Z,77.38
2023-02-22T00:07:51.554Z,78.23
2023-02-22T00:08:51.639Z,74.46
2023-02-22T00:09:50.679Z,76.60
2023-02-22T00:10:50.744Z,78.72
2023-02-22T00:11:50.812Z,78.71
2023-02-22T00:12:51.889Z,75.55
2023-02-22T00:13:51.941Z,77.74
2023-02-22T00:14:52.016Z,79.20
2023-02-22T00:15:52.062Z,77.50
2023-02-22T00:16:52.117Z,78.87
2023-02-22T00:17:51.594Z,80.23
2023-02-22T00:18:52.248Z,78.06
2023-02-22T00:19:52.317Z,76.65
2023-02-22T00:20:51.421Z,78.13
2023-02-22T00:21:52.513Z,77.57
2023-02-22T00:22:52.499Z,75.27
2023-02-22T00:23:52.555Z,76.78
2023-02-22T00:24:52.629Z,75.87
2023-02-22T00:25:51.660Z,79.23
2023-02-22T00:26:52.756Z,77.94
2023-02-22T00:27:52.899Z,76.38
2023-02-22T00:28:51.873Z,78.53
2023-02-22T00:29:52.885Z,75.50
2023-02-22T00:30:52.956Z,75.39
2023-02-22T00:31:53.175Z,77.08
2023-02-22T00:32:53.137Z,75.78
2023-02-22T00:33:52.145Z,77.50
2023-02-22T00:34:53.198Z,78.55
2023-02-22T00:35:53.284Z,75.78
2023-02-22T00:36:53.338Z,75.67
2023-02-22T00:37:52.388Z,77.28
2023-02-22T00:38:53.471Z,75.34
2023-02-22T00:39:53.534Z,75.14
2023-02-22T00:40:53.600Z,77.29
2023-02-22T00:41:53.703Z,74.74
2023-02-22T00:42:53.701Z,77.06
2023-02-22T00:43:53.768Z,77.88
2023-02-22T00:44:53.839Z,75.89
2023-02-22T00:45:53.928Z,78.93
2023-02-22T00:46:53.997Z,79.68
2023-02-22T00:47:54.015Z,78.46
2023-02-22T00:48:54.081Z,77.45
2023-02-22T00:49:53.166Z,74.91
2023-02-22T00:50:54.222Z,76.13
2023-02-22T00:51:54.275Z,78.23
2023-02-22T00:52:54.349Z,79.34
2023-02-22T00:53:54.400Z,79.66
2023-02-22T00:54:54.486Z,77.66
2023-02-22T00:55:53.572Z,76.27
2023-02-22T00:56:54.650Z,77.53
2023-02-22T00:57:53.641Z,78.34
2023-02-22T00:58:53.964Z,78.39
2023-02-22T00:59:54.753Z,77.66
2023-02-22T01:00:54.818Z,75.63
2023-02-22T01:01:54.861Z,74.77
2023-02-22T01:02:54.872Z,78.40
2023-02-22T01:03:54.943Z,74.39
2023-02-22T01:04:54.973Z,76.27
2023-02-22T01:05:55.017Z,77.71
2023-02-22T01:06:54.060Z,76.06
2023-02-22T01:07:54.197Z,77.28
2023-02-22T01:08:55.184Z,75.19
2023-02-22T01:09:55.210Z,75.77
2023-02-22T01:10:54.263Z,77.33
2023-02-22T01:11:54.308Z,74.40
2023-02-22T01:12:55.321Z,75.23
2023-02-22T01:13:55.293Z,74.46
2023-02-22T01:14:55.310Z,76.21
2023-02-22T01:15:55.313Z,78.81
2023-02-22T01:16:55.391Z,76.12
2023-02-22T01:17:55.338Z,75.91
2023-02-22T01:18:55.355Z,76.05
2023-02-22T01:19:55.359Z,73.89
2023-02-22T01:20:55.344Z,75.08
2023-02-22T01:21:55.374Z,76.63
2023-02-22T01:22:55.333Z,78.85
2023-02-22T01:23:55.323Z,75.92
2023-02-22T01:24:55.343Z,77.25
2023-02-22T01:25:54.335Z,77.87
2023-02-22T01:26:55.328Z,76.91
2023-02-22T01:27:55.341Z,78.09
2023-02-22T01:28:55.347Z,76.58
2023-02-22T01:29:55.319Z,76.13
2023-02-22T01:30:54.396Z,75.81
2023-02-22T01:31:54.436Z,74.96
2023-02-22T01:32:55.335Z,78.66
2023-02-22T01:33:55.310Z,78.24
2023-02-22T01:34:54.318Z,76.89
2023-02-22T01:35:54.302Z,77.44
2023-02-22T01:36:55.305Z,76.42
2023-02-22T01:37:55.332Z,77.01
2023-02-22T01:38:54.290Z,78.54
2023-02-22T01:39:55.305Z,75.73
2023-02-22T01:40:54.295Z,74.92
2023-02-22T01:41:55.296Z,77.71
2023-02-22T01:42:55.344Z,73.84
2023-02-22T01:43:55.382Z,75.86
2023-02-22T01:44:55.318Z,77.01
2023-02-22T01:45:54.369Z,72.83
2023-02-22T01:46:54.291Z,75.84
2023-02-22T01:47:55.345Z,75.22
2023-02-22T01:48:54.374Z,73.16
2023-02-22T01:49:55.378Z,77.43
2023-02-22T01:50:55.382Z,72.30
2023-02-22T01:51:55.384Z,74.81
2023-02-22T01:52:55.452Z,77.68
2023-02-22T01:53:55.467Z,77.92
2023-02-22T01:54:55.459Z,72.67
2023-02-22T01:55:55.477Z,77.95
2023-02-22T01:56:55.482Z,76.26
2023-02-22T01:57:55.521Z,76.37
2023-02-22T01:58:55.524Z,76.82
2023-02-22T01:59:55.560Z,75.69
2023-02-22T02:00:55.603Z,79.45
2023-02-22T02:01:55.613Z,76.93
2023-02-22T02:02:54.631Z,75.90
2023-02-22T02:03:55.716Z,81.84
2023-02-22T02:04:55.791Z,83.47
2023-02-22T02:05:54.761Z,81.23
2023-02-22T02:06:55.808Z,77.48
2023-02-22T02:07:55.876Z,79.22
2023-02-22T02:08:55.950Z,77.83
2023-02-22T02:09:56.007Z,80.14
2023-02-22T02:10:56.082Z,79.89
2023-02-22T02:11:55.132Z,81.27
2023-02-22T02:12:56.242Z,84.97
2023-02-22T02:13:56.250Z,78.42
2023-02-22T02:14:55.279Z,84.49
2023-02-22T02:15:56.351Z,82.84
2023-02-22T02:16:56.457Z,83.32
2023-02-22T02:17:55.452Z,83.76
2023-02-22T02:18:55.538Z,84.11
2023-02-22T02:19:56.560Z,85.92
2023-02-22T02:20:57.029Z,82.12
2023-02-22T02:21:55.796Z,82.49
2023-02-22T02:22:56.924Z,87.32
2023-02-22T02:23:56.776Z,87.42
2023-02-22T02:24:56.823Z,86.61
2023-02-22T02:25:56.896Z,87.52
2023-02-22T02:26:56.939Z,89.57
2023-02-22T02:27:56.973Z,87.74
2023-02-22T02:28:57.020Z,86.92
2023-02-22T02:29:57.117Z,89.60
2023-02-22T02:30:56.086Z,90.65
2023-02-22T02:31:57.227Z,91.13
2023-02-22T02:32:57.182Z,89.14
2023-02-22T02:33:57.207Z,91.02
2023-02-22T02:34:57.249Z,90.41
2023-02-22T02:35:57.263Z,95.27
2023-02-22T02:36:57.286Z,92.75
2023-02-22T02:37:57.317Z,95.73
2023-02-22T02:38:57.493Z,94.39
2023-02-22T02:39:57.445Z,98.72
2023-02-22T02:40:57.390Z,94.79
2023-02-22T02:41:57.413Z,96.25
2023-02-22T02:42:57.424Z,94.10
2023-02-22T02:43:56.443Z,92.94
2023-02-22T02:44:57.453Z,95.41
2023-02-22T02:45:57.473Z,96.63
2023-02-22T02:46:56.542Z,99.52
2023-02-22T02:47:57.498Z,96.34
2023-02-22T02:48:57.539Z,98.42
2023-02-22T02:49:57.498Z,100.13
2023-02-22T02:50:57.499Z,100.83
2023-02-22T02:51:57.502Z,101.19
2023-02-22T02:52:57.588Z,99.72
2023-02-22T02:53:57.565Z,97.19
2023-02-22T02:54:56.534Z,92.29
2023-02-22T02:55:57.510Z,93.44
2023-02-22T02:56:57.572Z,95.29
2023-02-22T02:57:57.527Z,97.56
2023-02-22T02:58:57.531Z,102.63
2023-02-22T02:59:57.568Z,102.29
2023-02-22T03:00:57.523Z,99.96
2023-02-22T03:01:56.578Z,97.52
2023-02-22T03:02:56.535Z,103.78
2023-02-22T03:03:57.695Z,97.70
2023-02-22T03:04:57.555Z,101.98
2023-02-22T03:05:56.516Z,100.90
2023-02-22T03:06:57.528Z,99.84
2023-02-22T03:07:57.523Z,103.16
2023-02-22T03:08:57.547Z,104.00
2023-02-22T03:09:56.564Z,99.42
2023-02-22T03:10:57.547Z,98.24
2023-02-22T03:11:57.538Z,99.82
2023-02-22T03:12:56.534Z,105.02
2023-02-22T03:13:57.554Z,105.25
2023-02-22T03:14:57.553Z,102.77
2023-02-22T03:15:57.564Z,99.20
2023-02-22T03:16:57.589Z,100.33
2023-02-22T03:17:57.615Z,101.49
2023-02-22T03:18:56.635Z,106.66
2023-02-22T03:19:57.639Z,105.41
2023-02-22T03:20:57.697Z,106.03
2023-02-22T03:21:57.703Z,98.96
2023-02-22T03:22:57.737Z,100.60
2023-02-22T03:23:58.004Z,97.77
2023-02-22T03:24:57.831Z,100.11
2023-02-22T03:25:57.903Z,102.73
2023-02-22T03:26:56.924Z,108.81
2023-02-22T03:27:57.936Z,104.40
2023-02-22T03:28:58.000Z,101.50
2023-02-22T03:29:58.044Z,103.37
2023-02-22T03:30:58.110Z,101.70
2023-02-22T03:31:58.148Z,103.18
2023-02-22T03:32:58.176Z,100.68
2023-02-22T03:33:57.269Z,103.09
2023-02-22T03:34:57.272Z,106.03
2023-02-22T03:35:57.378Z,102.94
2023-02-22T03:36:58.320Z,103.06
2023-02-22T03:37:57.309Z,101.14
2023-02-22T03:38:57.323Z,100.18
2023-02-22T03:39:58.388Z,102.25
2023-02-22T03:40:58.335Z,101.30
2023-02-22T03:41:58.333Z,103.53
2023-02-22T03:42:58.348Z,98.29
2023-02-22T03:43:58.400Z,104.82
2023-02-22T03:44:58.474Z,94.74
2023-02-22T03:45:57.563Z,104.53
2023-02-22T03:46:57.473Z,100.50
2023-02-22T03:47:58.490Z,101.47
2023-02-22T03:48:58.504Z,107.69
2023-02-22T03:49:58.589Z,100.15
2023-02-22T03:50:58.598Z,100.53
2023-02-22T03:51:57.645Z,99.99
2023-02-22T03:52:58.692Z,96.93
2023-02-22T03:53:58.668Z,98.07
2023-02-22T03:54:57.670Z,96.92
2023-02-22T03:55:58.695Z,102.40
2023-02-22T03:56:58.718Z,97.34
2023-02-22T03:57:58.739Z,96.77
2023-02-22T03:58:58.756Z,95.16
2023-02-22T03:59:58.809Z,100.21
2023-02-22T04:00:58.862Z,98.27
2023-02-22T04:01:57.902Z,97.06
2023-02-22T04:02:58.039Z,101.00
2023-02-22T04:03:58.981Z,97.82
2023-02-22T04:04:59.138Z,96.08
2023-02-22T04:05:59.101Z,96.42
2023-02-22T04:06:59.124Z,96.64
2023-02-22T04:07:59.200Z,100.84
2023-02-22T04:08:59.261Z,92.14
2023-02-22T04:09:59.275Z,97.30
2023-02-22T04:10:59.326Z,99.35
2023-02-22T04:11:58.346Z,97.76
2023-02-22T04:12:59.380Z,95.60
2023-02-22T04:13:58.449Z,96.46
2023-02-22T04:14:59.460Z,97.95
2023-02-22T04:15:59.594Z,94.40
2023-02-22T04:16:58.505Z,93.88
2023-02-22T04:17:58.568Z,90.56
2023-02-22T04:18:59.615Z,91.36
2023-02-22T04:19:59.817Z,91.45
2023-02-22T04:20:59.752Z,93.88
2023-02-22T04:21:58.801Z,95.15
2023-02-22T04:22:59.860Z,94.93
2023-02-22T04:23:59.928Z,93.49
2023-02-22T04:25:00.021Z,102.74
2023-02-22T04:26:00.147Z,92.11
2023-02-22T04:27:00.132Z,95.94
2023-02-22T04:27:59.152Z,96.65
2023-02-22T04:29:00.169Z,96.32
2023-02-22T04:30:00.204Z,98.74
2023-02-22T04:31:00.357Z,93.79
2023-02-22T04:32:00.270Z,97.72
2023-02-22T04:33:00.263Z,90.57
2023-02-22T04:34:00.276Z,93.14
2023-02-22T04:35:00.308Z,97.04
2023-02-22T04:35:59.300Z,90.89
2023-02-22T04:37:00.336Z,91.23
2023-02-22T04:38:00.358Z,93.83
2023-02-22T04:39:00.378Z,88.43
2023-02-22T04:39:59.397Z,91.21
2023-02-22T04:40:59.440Z,91.03
2023-02-22T04:42:00.449Z,88.25
2023-02-22T04:43:00.489Z,87.92
2023-02-22T04:43:59.495Z,88.63
2023-02-22T04:45:00.509Z,92.23
2023-02-22T04:46:00.548Z,86.77
2023-02-22T04:47:00.587Z,92.62
2023-02-22T04:48:00.607Z,85.27
2023-02-22T04:48:59.742Z,87.50
2023-02-22T04:50:00.714Z,93.45
2023-02-22T04:50:59.744Z,89.93
2023-02-22T04:52:00.816Z,91.79
2023-02-22T04:53:00.880Z,88.24
2023-02-22T04:54:00.952Z,91.01
2023-02-22T04:55:01.009Z,92.52
2023-02-22T04:56:01.057Z,88.78
2023-02-22T04:57:01.140Z,91.32
2023-02-22T04:58:01.187Z,89.80
2023-02-22T04:59:01.209Z,88.46
2023-02-22T05:00:01.296Z,91.06
2023-02-22T05:01:01.330Z,89.42
2023-02-22T05:02:01.372Z,90.00
2023-02-22T05:03:01.428Z,87.67
2023-02-22T05:04:01.487Z,87.95
2023-02-22T05:05:00.601Z,87.50
2023-02-22T05:06:01.588Z,88.01
2023-02-22T05:07:01.664Z,90.44
2023-02-22T05:08:01.721Z,91.79
2023-02-22T05:09:01.755Z,88.43
2023-02-22T05:10:00.761Z,83.57
2023-02-22T05:11:00.768Z,84.07
2023-02-22T05:12:01.806Z,85.38
2023-02-22T05:13:03.961Z,86.69
2023-02-22T05:14:01.803Z,86.61
2023-02-22T05:15:01.853Z,89.47
2023-02-22T05:16:01.834Z,89.53
2023-02-22T05:17:01.797Z,87.36
2023-02-22T05:18:00.802Z,86.29
2023-02-22T05:19:01.779Z,85.56
2023-02-22T05:20:00.824Z,87.48
2023-02-22T05:21:01.773Z,83.28
2023-02-22T05:22:01.762Z,81.39
2023-02-22T05:23:01.753Z,81.52
2023-02-22T05:24:00.757Z,84.52
2023-02-22T05:25:01.809Z,80.03
2023-02-22T05:26:00.776Z,85.81
2023-02-22T05:27:01.734Z,82.69
2023-02-22T05:28:01.719Z,81.62
2023-02-22T05:29:00.746Z,84.81
2023-02-22T05:30:01.706Z,81.85
2023-02-22T05:31:01.771Z,83.12
2023-02-22T05:32:01.853Z,80.23
2023-02-22T05:33:01.697Z,82.98
2023-02-22T05:34:01.663Z,79.05
2023-02-22T05:35:01.668Z,80.36
2023-02-22T05:36:01.647Z,79.87
2023-02-22T05:37:01.676Z,78.71
2023-02-22T05:38:01.644Z,81.22
2023-02-22T05:39:01.641Z,86.47
2023-02-22T05:40:00.647Z,79.22
2023-02-22T05:41:00.653Z,79.45
2023-02-22T05:42:01.616Z,81.93
2023-02-22T05:43:00.634Z,80.65
2023-02-22T05:44:00.605Z,82.42
2023-02-22T05:45:00.671Z,80.95
2023-02-22T05:46:01.606Z,78.74
2023-02-22T05:47:01.617Z,78.94
2023-02-22T05:48:01.612Z,79.97
2023-02-22T05:49:00.620Z,78.84
2023-02-22T05:50:01.675Z,80.83
2023-02-22T05:51:01.580Z,79.05
2023-02-22T05:52:01.572Z,75.00
2023-02-22T05:53:00.563Z,79.52
2023-02-22T05:54:01.570Z,77.03
2023-02-22T05:55:01.573Z,81.49
2023-02-22T05:56:01.536Z,75.14
2023-02-22T05:57:01.543Z,75.22
2023-02-22T05:58:01.520Z,79.11
2023-02-22T05:59:01.515Z,83.21
2023-02-22T06:00:01.507Z,75.92
2023-02-22T06:01:03.169Z,76.89
2023-02-22T06:02:00.593Z,82.23
2023-02-22T06:03:01.500Z,82.14
2023-02-22T06:04:01.481Z,87.06
2023-02-22T06:05:01.487Z,82.57
2023-02-22T06:06:01.508Z,81.14
2023-02-22T06:07:01.470Z,80.14
2023-02-22T06:08:00.460Z,82.14
2023-02-22T06:09:01.452Z,83.56
2023-02-22T06:10:01.431Z,80.97
2023-02-22T06:11:00.446Z,82.52
2023-02-22T06:12:01.455Z,82.96
2023-02-22T06:13:00.448Z,79.97
2023-02-22T06:14:00.426Z,82.35
2023-02-22T06:15:01.422Z,84.72
2023-02-22T06:16:00.446Z,83.09
2023-02-22T06:17:01.415Z,81.24
2023-02-22T06:18:00.433Z,77.96
2023-02-22T06:19:00.433Z,81.34
2023-02-22T06:20:01.394Z,78.04
2023-02-22T06:21:01.375Z,82.49
2023-02-22T06:22:01.360Z,79.29
2023-02-22T06:23:00.365Z,77.95
2023-02-22T06:24:01.363Z,79.76
2023-02-22T06:25:01.334Z,79.48
2023-02-22T06:26:01.325Z,77.32
2023-02-22T06:28:01.369Z,77.66
2023-02-22T06:29:01.306Z,86.28
2023-02-22T06:30:01.293Z,77.53
2023-02-22T06:31:01.301Z,81.22
2023-02-22T06:32:00.384Z,81.83
2023-02-22T06:33:01.306Z,83.38
2023-02-22T06:34:00.269Z,81.81
2023-02-22T06:35:01.206Z,81.33
2023-02-22T06:36:01.264Z,86.04
2023-02-22T06:37:01.253Z,84.30
2023-02-22T06:38:00.285Z,78.79
2023-02-22T06:39:01.248Z,79.84
2023-02-22T06:40:05.541Z,81.40
2023-02-22T06:41:01.457Z,81.85
2023-02-22T06:42:00.614Z,82.52
2023-02-22T06:43:02.084Z,83.78
2023-02-22T06:44:01.643Z,84.70
2023-02-22T06:45:01.696Z,90.30
2023-02-22T06:46:01.789Z,94.42
2023-02-22T06:47:01.757Z,99.39
2023-02-22T06:48:01.828Z,105.05
2023-02-22T06:49:00.972Z,102.80
2023-02-22T06:50:01.922Z,104.94
2023-02-22T06:51:01.987Z,110.93
2023-02-22T06:52:02.043Z,114.05
2023-02-22T06:53:01.102Z,118.74
2023-02-22T06:54:02.141Z,120.15
2023-02-22T06:55:02.229Z,122.96
2023-02-22T06:56:02.225Z,124.29
2023-02-22T06:57:02.246Z,131.57
2023-02-22T06:58:02.278Z,125.82
2023-02-22T06:59:02.837Z,137.56
2023-02-22T07:00:02.322Z,138.42
2023-02-22T07:01:02.399Z,122.66
2023-02-22T07:02:02.420Z,106.37
2023-02-22T07:03:02.505Z,103.37
2023-02-22T07:04:02.866Z,122.12
2023-02-22T07:05:02.549Z,117.70
2023-02-22T07:06:02.552Z,101.31
2023-02-22T07:07:01.568Z,122.42
2023-02-22T07:08:01.621Z,188.72
2023-02-22T07:09:02.777Z,113.40
2023-02-22T07:10:02.740Z,120.60
2023-02-22T07:11:01.759Z,95.08
2023-02-22T07:12:02.877Z,89.20
2023-02-22T07:13:02.827Z,90.98
2023-02-22T07:14:01.877Z,87.45
2023-02-22T07:15:02.824Z,120.33
2023-02-22T07:16:02.866Z,131.88
2023-02-22T07:17:01.914Z,126.99
2023-02-22T07:18:02.930Z,129.50
2023-02-22T07:19:03.026Z,135.20
2023-02-22T07:20:03.064Z,138.67
2023-02-22T07:21:03.144Z,188.28
2023-02-22T07:22:02.146Z,176.10
2023-02-22T07:23:02.182Z,169.03
2023-02-22T07:24:05.393Z,185.39
2023-02-22T07:25:02.210Z,171.95
2023-02-22T07:26:03.187Z,169.61
2023-02-22T07:27:02.194Z,158.09
2023-02-22T07:28:03.274Z,158.39
2023-02-22T07:29:03.182Z,163.53
2023-02-22T07:30:02.203Z,168.81
2023-02-22T07:31:03.153Z,171.07
2023-02-22T07:32:03.195Z,185.46
2023-02-22T07:33:03.200Z,185.63
2023-02-22T07:34:03.150Z,179.74
2023-02-22T07:35:02.306Z,218.00
2023-02-22T07:36:03.708Z,210.63
2023-02-22T07:37:02.271Z,201.68
2023-02-22T07:38:03.304Z,207.32
2023-02-22T07:39:03.192Z,212.35
2023-02-22T07:40:03.143Z,217.65
2023-02-22T07:41:02.301Z,209.35
2023-02-22T07:42:03.119Z,211.62
2023-02-22T07:43:02.113Z,200.93
2023-02-22T07:44:03.191Z,205.49
2023-02-22T07:45:02.144Z,268.43
2023-02-22T07:46:03.286Z,500.00
2023-02-22T07:47:03.238Z,500.00
2023-02-22T07:48:03.210Z,470.76
2023-02-22T07:49:03.123Z,396.22
2023-02-22T07:50:03.059Z,298.89
2023-02-22T07:51:03.107Z,260.48
2023-02-22T07:52:03.060Z,238.93
2023-02-22T07:53:03.065Z,221.50
2023-02-22T07:54:03.019Z,215.84
2023-02-22T07:55:02.057Z,218.89
2023-02-22T07:56:03.105Z,260.42
2023-02-22T07:57:02.151Z,253.77
2023-02-22T07:58:03.123Z,300.40
2023-02-22T07:59:02.301Z,315.06
2023-02-22T08:00:03.149Z,453.57
2023-02-22T08:01:03.166Z,381.43
2023-02-22T08:02:03.171Z,299.63
2023-02-22T08:03:03.202Z,261.48
2023-02-22T08:04:02.225Z,245.85
2023-02-22T08:05:02.242Z,220.85
2023-02-22T08:06:03.292Z,202.04
2023-02-22T08:07:03.358Z,203.17
2023-02-22T08:08:02.404Z,186.43
2023-02-22T08:09:03.436Z,172.35
2023-02-22T08:10:02.506Z,155.89
2023-02-22T08:11:03.516Z,159.16
2023-02-22T08:12:03.616Z,155.77
2023-02-22T08:13:02.646Z,152.44
2023-02-22T08:14:03.643Z,155.26
2023-02-22T08:15:03.692Z,149.67
2023-02-22T08:16:03.809Z,146.58
2023-02-22T08:17:04.024Z,144.85
2023-02-22T08:18:02.858Z,136.44
2023-02-22T08:19:03.004Z,139.21
2023-02-22T08:20:02.947Z,136.27
2023-02-22T08:21:03.994Z,123.27
2023-02-22T08:22:04.046Z,128.06
2023-02-22T08:23:04.104Z,121.48
2023-02-22T08:24:04.223Z,126.62
2023-02-22T08:25:04.249Z,119.89
2023-02-22T08:26:04.286Z,124.74
2023-02-22T08:27:04.328Z,121.50
2023-02-22T08:28:04.407Z,119.93
2023-02-22T08:29:04.548Z,120.10
2023-02-22T08:30:04.539Z,115.04
2023-02-22T08:31:04.554Z,117.12
2023-02-22T08:32:04.761Z,114.94
2023-02-22T08:33:03.847Z,113.86
2023-02-22T08:34:03.664Z,113.51
2023-02-22T08:35:04.737Z,109.15
2023-02-22T08:36:04.786Z,110.63
2023-02-22T08:37:03.861Z,107.26
2023-02-22T08:38:03.880Z,112.45
2023-02-22T08:39:04.913Z,114.12
2023-02-22T08:40:04.939Z,114.21
2023-02-22T08:41:05.032Z,115.02
2023-02-22T08:42:05.148Z,116.75
2023-02-22T08:43:05.022Z,117.04
2023-02-22T08:44:04.272Z,113.86
2023-02-22T08:45:05.041Z,123.94
2023-02-22T08:46:05.148Z,118.18
2023-02-22T08:47:05.312Z,113.03
2023-02-22T08:48:04.116Z,93.33
2023-02-22T08:49:04.135Z,80.78
2023-02-22T08:50:05.301Z,80.46
2023-02-22T08:51:04.257Z,82.12
2023-02-22T08:52:05.317Z,83.78
2023-02-22T08:53:05.388Z,83.53
2023-02-22T08:54:05.458Z,83.71
2023-02-22T08:55:05.534Z,83.60
2023-02-22T08:56:05.561Z,80.67
2023-02-22T08:57:04.643Z,78.98
2023-02-22T08:58:05.664Z,84.55
2023-02-22T08:59:05.762Z,80.46
2023-02-22T09:00:05.798Z,79.43
2023-02-22T09:01:05.826Z,78.96
2023-02-22T09:02:04.911Z,80.12
2023-02-22T09:03:05.897Z,74.51
2023-02-22T09:04:04.944Z,75.68
2023-02-22T09:05:05.983Z,74.25
2023-02-22T09:06:05.088Z,75.82
2023-02-22T09:07:05.069Z,77.17
2023-02-22T09:08:06.059Z,72.27
2023-02-22T09:09:05.076Z,70.69
2023-02-22T09:10:05.123Z,73.80
2023-02-22T09:11:06.113Z,71.35
2023-02-22T09:12:06.148Z,74.04
2023-02-22T09:13:06.164Z,70.61
2023-02-22T09:14:06.190Z,71.04
2023-02-22T09:15:06.213Z,70.43
2023-02-22T09:16:05.256Z,70.39
2023-02-22T09:17:06.320Z,67.86
2023-02-22T09:18:06.341Z,67.54
2023-02-22T09:19:06.375Z,65.94
2023-02-22T09:20:05.811Z,70.04
2023-02-22T09:21:06.494Z,65.70
2023-02-22T09:22:06.567Z,68.04
2023-02-22T09:23:06.651Z,66.28
2023-02-22T09:24:06.692Z,64.14
2023-02-22T09:25:16.318Z,65.16
2023-02-22T09:26:06.755Z,63.87
2023-02-22T09:27:05.751Z,62.64
2023-02-22T09:28:05.774Z,61.50
2023-02-22T09:29:06.748Z,59.93
2023-02-22T09:30:05.791Z,59.68
2023-02-22T09:31:06.724Z,59.14
2023-02-22T09:32:05.893Z,57.91
2023-02-22T09:33:06.851Z,57.91
2023-02-22T09:34:06.723Z,59.96
2023-02-22T09:35:06.871Z,58.56
2023-02-22T09:36:06.905Z,58.41
2023-02-22T09:37:07.778Z,55.86
2023-02-22T09:38:07.021Z,56.00
2023-02-22T09:39:07.046Z,52.87
2023-02-22T09:40:07.152Z,52.39
2023-02-22T09:41:07.238Z,51.54
2023-02-22T09:42:07.279Z,54.23
2023-02-22T09:43:07.300Z,52.71
2023-02-22T09:44:07.403Z,54.85
2023-02-22T09:45:07.396Z,36.30
2023-02-22T09:46:07.539Z,48.48
2023-02-22T09:47:07.488Z,46.58
2023-02-22T09:48:20.920Z,45.84
2023-02-22T09:49:07.493Z,45.87
2023-02-22T09:50:07.501Z,45.32
2023-02-22T09:51:06.472Z,46.85
2023-02-22T09:52:07.451Z,46.35
2023-02-22T09:53:07.516Z,44.65
2023-02-22T09:54:07.444Z,47.97
2023-02-22T09:55:07.783Z,45.32
2023-02-22T09:56:07.449Z,44.84
2023-02-22T09:57:06.438Z,46.45
2023-02-22T09:58:07.427Z,49.32
2023-02-22T09:59:07.430Z,46.83
2023-02-22T10:00:06.498Z,45.63
2023-02-22T10:01:06.402Z,44.51
2023-02-22T10:02:07.409Z,44.23
2023-02-22T10:03:07.390Z,44.37
2023-02-22T10:04:07.419Z,43.40
2023-02-22T10:05:07.440Z,44.51
2023-02-22T10:06:07.376Z,47.24
2023-02-22T10:07:07.366Z,46.14
2023-02-22T10:08:07.358Z,47.81
2023-02-22T10:09:07.347Z,45.11
2023-02-22T10:10:07.380Z,44.01
2023-02-22T10:11:06.340Z,41.04
2023-02-22T10:12:07.336Z,38.89
2023-02-22T10:13:07.325Z,42.79
2023-02-22T10:14:06.341Z,45.30
2023-02-22T10:15:07.318Z,42.93
2023-02-22T10:16:07.341Z,43.07
2023-02-22T10:17:07.306Z,42.52
2023-02-22T10:18:07.309Z,43.25
2023-02-22T10:19:07.317Z,44.52
2023-02-22T10:20:07.311Z,42.53
2023-02-22T10:21:06.309Z,42.79
2023-02-22T10:22:07.298Z,42.58
2023-02-22T10:23:07.264Z,44.27
2023-02-22T10:24:07.289Z,44.25
2023-02-22T10:26:07.404Z,43.66
2023-02-22T10:27:07.466Z,44.24
2023-02-22T10:29:07.584Z,43.06
2023-02-22T10:30:23.448Z,234.55
2023-02-22T10:31:07.895Z,155.20
2023-02-22T10:32:07.720Z,117.77
2023-02-22T10:34:07.610Z,105.75
2023-02-22T10:35:07.595Z,106.68
2023-02-22T10:36:07.755Z,144.79
2023-02-22T10:37:06.568Z,190.22
2023-02-22T10:38:06.563Z,230.59
2023-02-22T10:39:07.564Z,250.42
2023-02-22T10:40:07.564Z,222.52
2023-02-22T10:41:07.687Z,204.17
2023-02-22T10:42:07.554Z,238.09
2023-02-22T10:43:07.637Z,256.85
2023-02-22T10:44:06.539Z,242.79
2023-02-22T10:45:07.515Z,235.12
2023-02-22T10:46:07.836Z,223.39
2023-02-22T10:47:07.785Z,214.36
2023-02-22T10:48:06.521Z,198.33
2023-02-22T10:52:06.513Z,173.61
2023-02-22T10:56:07.620Z,176.55
2023-02-22T10:57:07.564Z,168.22
2023-02-22T10:58:06.565Z,164.32
2023-02-22T10:59:07.620Z,156.54
2023-02-22T11:01:07.741Z,150.69
2023-02-22T11:02:06.686Z,148.77
2023-02-22T11:03:06.680Z,147.64
2023-02-22T11:04:07.739Z,145.06
2023-02-22T11:05:06.809Z,144.42
2023-02-22T11:06:07.753Z,140.83
2023-02-22T11:07:07.765Z,139.31
2023-02-22T11:09:07.938Z,137.86
2023-02-22T11:10:07.803Z,140.43
2023-02-22T11:11:06.810Z,134.81
2023-02-22T11:12:07.812Z,134.41
2023-02-22T11:14:06.890Z,126.63
2023-02-22T11:17:06.867Z,127.79
2023-02-22T11:18:08.931Z,128.68
2023-02-22T11:19:07.869Z,127.54
2023-02-22T11:21:07.877Z,125.50
2023-02-22T11:22:06.832Z,122.77
2023-02-22T11:23:08.035Z,121.30
2023-02-22T11:25:07.853Z,123.81
2023-02-22T11:26:07.879Z,123.04
2023-02-22T11:28:07.904Z,119.02
2023-02-22T11:30:08.061Z,117.59
2023-02-22T11:31:07.111Z,118.39
2023-02-22T11:33:07.918Z,118.66
2023-02-22T11:34:07.949Z,113.92
2023-02-22T11:35:09.493Z,114.01
2023-02-22T11:36:07.164Z,108.75
2023-02-22T11:38:08.176Z,118.61
2023-02-22T11:39:08.274Z,116.88
2023-02-22T11:40:08.197Z,114.50
2023-02-22T11:41:08.207Z,113.03
2023-02-22T11:44:08.193Z,107.87
2023-02-22T11:45:07.211Z,104.44
2023-02-22T11:46:08.328Z,101.03
2023-02-22T11:53:07.467Z,95.37
2023-02-22T11:59:07.751Z,87.07
2023-02-22T12:01:07.843Z,84.11
2023-02-22T12:03:07.944Z,82.24
2023-02-22T12:05:08.112Z,82.91
2023-02-22T13:04:20.509Z,63.56
2023-02-22T13:30:11.395Z,61.56
2023-02-22T13:31:11.412Z,60.95
2023-02-22T13:32:10.466Z,60.92
2023-02-22T13:35:10.570Z,60.52
2023-02-22T13:38:11.706Z,61.20
2023-02-22T13:39:11.759Z,61.00
2023-02-22T13:40:11.819Z,59.82
2023-02-22T13:41:10.887Z,60.23
2023-02-22T13:43:11.983Z,59.51
2023-02-22T13:44:12.089Z,59.94
2023-02-22T13:45:12.117Z,58.49
2023-02-22T13:47:12.256Z,59.55
2023-02-22T13:48:12.297Z,59.47
2023-02-22T13:50:12.431Z,60.50
2023-02-22T13:52:12.554Z,58.39
2023-02-22T13:53:12.657Z,59.39
2023-02-22T13:54:12.687Z,59.16
2023-02-22T13:55:12.746Z,59.14
2023-02-22T13:56:11.826Z,58.51
2023-02-22T13:57:12.887Z,58.47
2023-02-22T13:58:12.911Z,58.81
2023-02-22T13:59:11.986Z,59.03
2023-02-22T14:00:13.067Z,57.98
2023-02-22T14:01:13.099Z,59.25
2023-02-22T14:02:12.184Z,58.92
2023-02-22T14:03:13.240Z,58.27
2023-02-22T14:04:13.298Z,57.15
2023-02-22T14:05:13.364Z,56.61
2023-02-22T14:06:12.423Z,56.64
2023-02-22T14:07:13.485Z,58.40
2023-02-22T14:08:12.528Z,57.16
2023-02-22T14:09:13.592Z,57.29
2023-02-22T14:10:13.665Z,57.03
2023-02-22T14:11:12.804Z,57.76
2023-02-22T14:12:12.769Z,57.80
2023-02-22T14:13:13.824Z,54.60
2023-02-22T14:14:13.897Z,55.39
2023-02-22T14:15:28.185Z,56.73
2023-02-22T14:16:14.052Z,56.77
2023-02-22T14:17:12.934Z,56.98
2023-02-22T14:18:13.926Z,55.95
2023-02-22T14:19:13.948Z,54.81
2023-02-22T14:20:13.935Z,56.92
2023-02-22T14:21:12.923Z,55.70
2023-02-22T14:22:13.922Z,56.46
2023-02-22T14:23:14.920Z,57.46
2023-02-22T14:24:13.944Z,57.04
2023-02-22T14:25:17.535Z,55.53
2023-02-22T14:26:13.871Z,55.58
2023-02-22T14:27:12.877Z,55.78
2023-02-22T14:28:13.883Z,55.67
2023-02-22T14:29:12.878Z,56.29
2023-02-22T14:30:13.889Z,55.14
2023-02-22T14:31:25.555Z,55.33
2023-02-22T14:32:13.976Z,55.39
2023-02-22T14:33:13.824Z,55.53
2023-02-22T14:34:13.022Z,55.23
2023-02-22T14:35:25.459Z,54.67
2023-02-22T14:36:13.834Z,55.38
2023-02-22T14:37:13.809Z,55.45
2023-02-22T14:38:12.798Z,55.20
2023-02-22T14:39:13.805Z,55.25
2023-02-22T14:40:13.789Z,53.15
2023-02-22T14:41:13.783Z,54.61
2023-02-22T14:42:12.869Z,54.43
2023-02-22T14:43:13.762Z,54.50
2023-02-22T14:44:13.769Z,54.55
2023-02-22T14:45:12.862Z,53.45
2023-02-22T14:46:13.667Z,54.53
2023-02-22T14:47:13.746Z,54.50
2023-02-22T14:48:13.776Z,54.22
2023-02-22T14:49:13.728Z,54.01
2023-02-22T14:50:13.738Z,52.49
2023-02-22T14:51:21.620Z,52.09
2023-02-22T14:52:13.697Z,52.20
2023-02-22T14:53:12.707Z,52.49
2023-02-22T14:54:13.768Z,52.38